createdAt,value
2019-03-27T00:02:24.255Z,8.50
2019-03-27T00:04:52.920Z,8.50
2019-03-27T00:07:21.547Z,8.40
2019-03-27T00:09:50.213Z,8.40
2019-03-27T00:12:18.832Z,8.40
2019-03-27T00:14:47.434Z,8.40
2019-03-27T00:17:16.189Z,8.30
2019-03-27T00:19:44.852Z,8.30
2019-03-27T00:22:13.480Z,8.30
2019-03-27T00:24:42.166Z,8.40
2019-03-27T00:27:10.854Z,8.30
2019-03-27T00:29:39.448Z,8.30
2019-03-27T00:32:08.102Z,8.30
2019-03-27T00:34:36.726Z,8.40
2019-03-27T00:37:05.310Z,8.40
2019-03-27T00:39:33.927Z,8.40
2019-03-27T00:42:02.543Z,8.30
2019-03-27T00:44:31.208Z,8.30
2019-03-27T00:46:59.860Z,8.30
2019-03-27T00:49:28.483Z,8.30
2019-03-27T00:51:57.151Z,8.30
2019-03-27T00:54:25.847Z,8.30
2019-03-27T00:56:54.519Z,8.20
2019-03-27T00:59:23.207Z,8.20
2019-03-27T01:01:51.874Z,8.30
2019-03-27T01:04:20.492Z,8.30
2019-03-27T01:06:50.958Z,8.30
2019-03-27T01:09:19.731Z,8.30
2019-03-27T01:11:48.388Z,8.20
2019-03-27T01:14:17.018Z,8.10
2019-03-27T01:16:45.669Z,8.20
2019-03-27T01:19:14.358Z,8.20
2019-03-27T01:21:42.958Z,8.20
2019-03-27T01:24:11.643Z,8.30
2019-03-27T01:26:40.242Z,8.30
2019-03-27T01:29:08.950Z,8.30
2019-03-27T01:31:40.453Z,8.30
2019-03-27T01:34:09.443Z,8.30
2019-03-27T01:36:38.107Z,8.40
2019-03-27T01:39:06.721Z,8.30
2019-03-27T01:41:35.326Z,8.30
2019-03-27T01:44:04.007Z,8.20
2019-03-27T01:46:32.612Z,8.20
2019-03-27T01:49:01.307Z,8.10
2019-03-27T01:51:29.907Z,8.10
2019-03-27T01:53:58.602Z,8.10
2019-03-27T01:56:27.281Z,8.00
2019-03-27T01:58:55.891Z,8.00
2019-03-27T02:01:24.536Z,8.00
2019-03-27T02:03:53.229Z,8.00
2019-03-27T02:06:21.893Z,8.00
2019-03-27T02:08:50.497Z,8.00
2019-03-27T02:11:19.208Z,8.00
2019-03-27T02:13:47.872Z,8.00
2019-03-27T02:16:16.559Z,8.00
2019-03-27T02:18:45.235Z,8.00
2019-03-27T02:21:13.919Z,8.10
2019-03-27T02:23:42.571Z,8.00
2019-03-27T02:26:11.187Z,8.00
2019-03-27T02:28:39.875Z,8.00
2019-03-27T02:31:08.556Z,8.00
2019-03-27T02:33:37.230Z,8.00
2019-03-27T02:36:05.921Z,8.00
2019-03-27T02:38:34.587Z,8.00
2019-03-27T02:41:03.365Z,8.00
2019-03-27T02:43:32.015Z,8.00
2019-03-27T02:46:00.716Z,8.10
2019-03-27T02:48:29.403Z,8.10
2019-03-27T02:50:58.083Z,8.10
2019-03-27T02:53:26.747Z,8.10
2019-03-27T02:55:55.374Z,8.10
2019-03-27T02:58:24.036Z,8.00
2019-03-27T03:00:52.749Z,8.10
2019-03-27T03:03:21.354Z,8.10
2019-03-27T03:05:50.039Z,8.10
2019-03-27T03:08:18.716Z,8.00
2019-03-27T03:10:47.400Z,8.00
2019-03-27T03:13:16.072Z,8.00
2019-03-27T03:15:44.708Z,8.00
2019-03-27T03:18:13.304Z,8.00
2019-03-27T03:20:42.014Z,8.00
2019-03-27T03:23:10.714Z,7.90
2019-03-27T03:25:39.409Z,8.00
2019-03-27T03:28:08.062Z,8.00
2019-03-27T03:30:36.700Z,8.00
2019-03-27T03:33:05.372Z,7.90
2019-03-27T03:35:34.087Z,7.90
2019-03-27T03:38:02.751Z,7.90
2019-03-27T03:40:31.370Z,7.90
2019-03-27T03:43:00.069Z,8.00
2019-03-27T03:45:28.747Z,8.00
2019-03-27T03:47:57.455Z,8.00
2019-03-27T03:50:39.690Z,8.10
2019-03-27T03:53:10.242Z,8.00
2019-03-27T03:55:39.336Z,8.10
2019-03-27T03:58:12.010Z,8.10
2019-03-27T04:00:41.072Z,8.00
2019-03-27T04:03:09.816Z,8.00
2019-03-27T04:05:38.517Z,8.00
2019-03-27T04:08:07.184Z,8.00
2019-03-27T04:10:35.870Z,8.00
2019-03-27T04:13:04.613Z,8.00
2019-03-27T04:15:33.270Z,8.00
2019-03-27T04:18:01.975Z,8.00
2019-03-27T04:20:30.648Z,8.00
2019-03-27T04:22:59.262Z,8.00
2019-03-27T04:25:27.939Z,8.10
2019-03-27T04:27:56.625Z,8.10
2019-03-27T04:30:25.312Z,8.10
2019-03-27T04:32:53.900Z,8.10
2019-03-27T04:35:22.601Z,8.10
2019-03-27T04:37:51.268Z,8.10
2019-03-27T04:40:19.964Z,8.20
2019-03-27T04:42:48.658Z,8.10
2019-03-27T04:45:17.406Z,8.20
2019-03-27T04:47:46.100Z,8.10
2019-03-27T04:50:14.763Z,8.00
2019-03-27T04:52:43.452Z,8.00
2019-03-27T04:55:12.149Z,8.00
2019-03-27T04:57:40.830Z,8.00
2019-03-27T05:00:09.878Z,7.90
2019-03-27T05:02:37.532Z,7.90
2019-03-27T05:05:07.381Z,8.00
2019-03-27T05:07:36.384Z,8.00
2019-03-27T05:10:05.526Z,8.00
2019-03-27T05:12:34.504Z,8.00
2019-03-27T05:15:03.279Z,8.00
2019-03-27T05:17:44.729Z,8.00
2019-03-27T05:20:02.320Z,8.00
2019-03-27T05:22:30.977Z,8.10
2019-03-27T05:24:59.606Z,8.10
2019-03-27T05:27:28.200Z,8.10
2019-03-27T05:29:56.907Z,8.00
2019-03-27T05:32:25.568Z,8.00
2019-03-27T05:34:54.278Z,8.00
2019-03-27T05:37:22.948Z,8.00
2019-03-27T05:39:51.544Z,8.10
2019-03-27T05:42:20.265Z,8.00
2019-03-27T05:44:48.924Z,8.10
2019-03-27T05:47:17.557Z,8.10
2019-03-27T05:49:46.165Z,8.10
2019-03-27T05:52:14.875Z,8.10
2019-03-27T05:54:43.593Z,8.10
2019-03-27T05:57:12.265Z,8.20
2019-03-27T05:59:41.038Z,8.20
2019-03-27T06:02:09.714Z,8.30
2019-03-27T06:04:38.419Z,8.30
2019-03-27T06:07:07.036Z,8.30
2019-03-27T06:09:35.744Z,8.30
2019-03-27T06:12:04.416Z,8.40
2019-03-27T06:14:33.117Z,8.40
2019-03-27T06:17:01.822Z,8.50
2019-03-27T06:19:30.510Z,8.40
2019-03-27T06:21:59.209Z,8.40
2019-03-27T06:24:27.908Z,8.40
2019-03-27T06:26:56.528Z,8.50
2019-03-27T06:29:25.306Z,8.50
2019-03-27T06:31:53.918Z,8.50
2019-03-27T06:34:22.615Z,8.60
2019-03-27T06:36:53.632Z,8.50
2019-03-27T06:39:25.158Z,8.50
2019-03-27T06:41:54.083Z,8.60
2019-03-27T06:44:22.681Z,8.60
2019-03-27T06:46:51.322Z,8.80
2019-03-27T06:49:20.009Z,8.80
2019-03-27T06:51:48.706Z,8.90
2019-03-27T06:54:17.388Z,8.80
2019-03-27T06:56:46.064Z,8.90
2019-03-27T06:59:14.696Z,8.90
2019-03-27T07:01:43.378Z,8.80
2019-03-27T07:04:12.079Z,8.70
2019-03-27T07:06:40.779Z,8.70
2019-03-27T07:09:09.567Z,8.70
2019-03-27T07:11:38.267Z,8.70
2019-03-27T07:14:06.889Z,8.90
2019-03-27T07:16:35.577Z,8.90
2019-03-27T07:19:04.255Z,8.90
2019-03-27T07:21:32.918Z,8.90
2019-03-27T07:24:01.517Z,9.00
2019-03-27T07:26:30.245Z,8.90
2019-03-27T07:28:58.979Z,8.80
2019-03-27T07:31:27.652Z,8.80
2019-03-27T07:33:56.367Z,8.90
2019-03-27T07:36:25.029Z,9.10
2019-03-27T07:38:53.657Z,8.80
2019-03-27T07:41:22.349Z,8.80
2019-03-27T07:43:50.965Z,8.80
2019-03-27T07:46:19.659Z,8.90
2019-03-27T07:48:53.787Z,8.90
2019-03-27T07:51:19.000Z,9.00
2019-03-27T07:53:47.671Z,9.00
2019-03-27T07:56:16.343Z,9.00
2019-03-27T07:58:44.965Z,9.10
2019-03-27T08:01:13.656Z,9.10
2019-03-27T08:03:42.363Z,9.30
2019-03-27T08:06:10.977Z,9.20
2019-03-27T08:08:39.635Z,9.30
2019-03-27T08:11:08.312Z,9.40
2019-03-27T08:13:37.007Z,9.50
2019-03-27T08:16:05.713Z,9.60
2019-03-27T08:18:34.311Z,9.70
2019-03-27T08:21:02.973Z,9.70
2019-03-27T08:23:31.611Z,9.80
2019-03-27T08:26:00.236Z,9.90
2019-03-27T08:28:28.911Z,9.90
2019-03-27T08:30:57.527Z,9.90
2019-03-27T08:33:26.120Z,9.80
2019-03-27T08:35:54.751Z,9.80
2019-03-27T08:38:23.417Z,9.90
2019-03-27T08:40:52.101Z,10.00
2019-03-27T08:43:23.962Z,10.00
2019-03-27T08:45:51.335Z,9.90
2019-03-27T08:48:19.993Z,9.90
2019-03-27T08:50:48.682Z,9.80
2019-03-27T08:53:17.291Z,9.90
2019-03-27T08:55:45.987Z,10.00
2019-03-27T08:58:14.668Z,10.10
2019-03-27T09:00:47.305Z,10.20
2019-03-27T09:03:16.336Z,10.10
2019-03-27T09:05:44.943Z,10.30
2019-03-27T09:08:13.957Z,10.30
2019-03-27T09:10:41.652Z,10.50
2019-03-27T09:13:09.995Z,10.40
2019-03-27T09:15:38.675Z,10.30
2019-03-27T09:18:07.367Z,10.30
2019-03-27T09:20:35.971Z,10.40
2019-03-27T09:23:04.671Z,10.50
2019-03-27T09:25:33.282Z,10.40
2019-03-27T09:28:01.977Z,10.40
2019-03-27T09:30:30.572Z,10.20
2019-03-27T09:32:59.192Z,10.20
2019-03-27T09:35:27.811Z,10.10
2019-03-27T09:37:56.562Z,10.10
2019-03-27T09:40:25.208Z,10.20
2019-03-27T09:42:53.910Z,10.20
2019-03-27T09:45:22.580Z,10.20
2019-03-27T09:47:51.220Z,10.30
2019-03-27T09:50:19.902Z,10.30
2019-03-27T09:52:48.600Z,10.30
2019-03-27T09:55:17.273Z,10.30
2019-03-27T09:57:45.979Z,10.30
2019-03-27T10:00:14.670Z,10.20
2019-03-27T10:02:43.301Z,10.20
2019-03-27T10:05:11.979Z,10.20
2019-03-27T10:07:40.659Z,10.10
2019-03-27T10:10:09.346Z,10.20
2019-03-27T10:12:38.092Z,10.30
2019-03-27T10:15:07.584Z,10.40
2019-03-27T10:17:36.562Z,10.30
2019-03-27T10:20:05.421Z,10.40
2019-03-27T10:22:34.016Z,10.60
2019-03-27T10:25:02.786Z,10.60
2019-03-27T10:27:31.464Z,10.70
2019-03-27T10:30:00.379Z,10.70
2019-03-27T10:32:28.749Z,10.50
2019-03-27T10:34:57.443Z,10.50
2019-03-27T10:37:26.044Z,10.40
2019-03-27T10:39:54.655Z,10.40
2019-03-27T10:42:23.337Z,10.30
2019-03-27T10:44:51.956Z,10.30
2019-03-27T10:47:20.571Z,10.20
2019-03-27T10:49:49.264Z,10.20
2019-03-27T10:52:17.938Z,10.20
2019-03-27T10:54:46.580Z,10.10
2019-03-27T10:57:15.179Z,10.20
2019-03-27T10:59:43.834Z,10.20
2019-03-27T11:02:12.518Z,10.10
2019-03-27T11:04:41.272Z,10.20
2019-03-27T11:07:09.961Z,10.00
2019-03-27T11:09:38.614Z,10.10
2019-03-27T11:12:07.300Z,10.10
2019-03-27T11:14:38.247Z,10.10
2019-03-27T11:17:06.669Z,10.10
2019-03-27T11:19:35.272Z,10.00
2019-03-27T11:22:03.911Z,10.00
2019-03-27T11:24:32.515Z,10.00
2019-03-27T11:27:01.248Z,10.20
2019-03-27T11:29:29.700Z,10.20
2019-03-27T11:31:58.380Z,10.20
2019-03-27T11:34:26.985Z,10.20
2019-03-27T11:36:55.607Z,10.20
2019-03-27T11:39:24.837Z,10.20
2019-03-27T11:41:53.862Z,10.30
2019-03-27T11:44:22.477Z,10.20
2019-03-27T11:46:51.146Z,10.10
2019-03-27T11:49:19.855Z,10.00
2019-03-27T11:51:48.529Z,10.00
2019-03-27T11:54:17.199Z,10.20
2019-03-27T11:56:45.879Z,10.40
2019-03-27T11:59:14.552Z,10.40
2019-03-27T12:01:43.875Z,10.40
2019-03-27T12:04:12.904Z,10.30
2019-03-27T12:06:41.579Z,10.30
2019-03-27T12:09:10.176Z,10.40
2019-03-27T12:11:38.845Z,10.20
2019-03-27T12:14:07.527Z,10.20
2019-03-27T12:16:36.196Z,10.10
2019-03-27T12:19:04.955Z,9.90
2019-03-27T12:21:33.626Z,10.00
2019-03-27T12:24:02.297Z,10.10
2019-03-27T12:26:30.989Z,10.10
2019-03-27T12:28:59.674Z,10.00
2019-03-27T12:31:28.442Z,10.00
2019-03-27T12:33:57.117Z,9.90
2019-03-27T12:36:25.744Z,10.00
2019-03-27T12:38:54.413Z,9.90
2019-03-27T12:41:23.093Z,9.90
2019-03-27T12:43:51.783Z,10.00
2019-03-27T12:46:20.460Z,10.10
2019-03-27T12:48:49.165Z,10.10
2019-03-27T12:51:17.772Z,10.20
2019-03-27T12:53:46.430Z,10.20
2019-03-27T12:56:15.105Z,10.20
2019-03-27T12:58:43.774Z,10.00
2019-03-27T13:01:12.465Z,10.00
2019-03-27T13:03:44.195Z,9.80
2019-03-27T13:06:11.742Z,9.80
2019-03-27T13:08:40.418Z,9.90
2019-03-27T13:11:09.071Z,9.90
2019-03-27T13:13:37.674Z,9.90
2019-03-27T13:16:06.341Z,9.80
2019-03-27T13:18:35.028Z,9.80
2019-03-27T13:21:03.715Z,9.80
2019-03-27T13:23:32.371Z,9.80
2019-03-27T13:26:00.982Z,9.70
2019-03-27T13:28:29.650Z,9.70
2019-03-27T13:30:58.351Z,9.80
2019-03-27T13:33:27.012Z,9.80
2019-03-27T13:35:55.664Z,9.80
2019-03-27T13:38:24.271Z,9.80
2019-03-27T13:40:52.933Z,9.80
2019-03-27T13:43:21.627Z,9.80
2019-03-27T13:45:50.387Z,9.70
2019-03-27T13:48:18.974Z,9.70
2019-03-27T13:50:47.661Z,9.70
2019-03-27T13:53:16.325Z,9.80
2019-03-27T13:55:45.020Z,9.80
2019-03-27T13:58:13.684Z,9.80
2019-03-27T14:00:42.377Z,9.80
2019-03-27T14:03:11.050Z,9.90
2019-03-27T14:05:39.715Z,9.80
2019-03-27T14:08:08.377Z,9.80
2019-03-27T14:10:37.036Z,9.90
2019-03-27T14:13:05.724Z,9.90
2019-03-27T14:15:34.403Z,9.90
2019-03-27T14:18:03.093Z,9.90
2019-03-27T14:20:31.682Z,10.00
2019-03-27T14:23:00.807Z,9.90
2019-03-27T14:25:29.741Z,9.90
2019-03-27T14:27:58.480Z,9.90
2019-03-27T14:30:46.814Z,9.90
2019-03-27T14:33:15.484Z,9.80
2019-03-27T14:35:44.160Z,9.70
2019-03-27T14:38:12.867Z,9.70
2019-03-27T14:40:41.454Z,9.80
2019-03-27T14:43:10.044Z,9.90
2019-03-27T14:45:38.648Z,9.90
2019-03-27T14:48:07.314Z,9.90
2019-03-27T14:50:36.012Z,9.80
2019-03-27T14:53:04.604Z,9.80
2019-03-27T14:55:33.230Z,9.80
2019-03-27T14:58:01.811Z,9.80
2019-03-27T15:00:30.402Z,9.90
2019-03-27T15:02:58.993Z,9.80
2019-03-27T15:05:27.575Z,9.90
2019-03-27T15:07:56.202Z,9.90
2019-03-27T15:10:24.857Z,9.90
2019-03-27T15:12:53.466Z,9.90
2019-03-27T15:15:22.131Z,9.80
2019-03-27T15:17:50.723Z,9.80
2019-03-27T15:20:19.407Z,9.80
2019-03-27T15:22:47.976Z,9.80
2019-03-27T15:25:16.591Z,9.90
2019-03-27T15:27:45.198Z,9.90
2019-03-27T15:30:13.859Z,9.90
2019-03-27T15:32:42.607Z,9.80
2019-03-27T15:35:11.260Z,9.90
2019-03-27T15:37:39.930Z,9.90
2019-03-27T15:40:08.596Z,9.80
2019-03-27T15:42:37.489Z,9.80
2019-03-27T15:45:09.456Z,9.70
2019-03-27T15:47:38.361Z,9.70
2019-03-27T15:50:07.049Z,9.70
2019-03-27T15:52:37.116Z,9.70
2019-03-27T15:55:06.776Z,9.60
2019-03-27T15:57:35.727Z,9.60
2019-03-27T16:00:05.343Z,9.70
2019-03-27T16:02:34.231Z,9.70
2019-03-27T16:05:02.930Z,9.60
2019-03-27T16:07:31.604Z,9.60
2019-03-27T16:10:00.478Z,9.60
2019-03-27T16:12:28.871Z,9.60
2019-03-27T16:14:57.474Z,9.60
2019-03-27T16:17:26.143Z,9.60
2019-03-27T16:19:54.855Z,9.60
2019-03-27T16:22:23.522Z,9.60
2019-03-27T16:24:52.216Z,9.70
2019-03-27T16:27:20.898Z,9.70
2019-03-27T16:29:49.557Z,9.70
2019-03-27T16:32:18.177Z,9.70
2019-03-27T16:34:46.789Z,9.80
2019-03-27T16:37:15.490Z,9.80
2019-03-27T16:39:44.171Z,9.80
2019-03-27T16:42:12.871Z,9.80
2019-03-27T16:44:41.554Z,9.80
2019-03-27T16:47:10.269Z,9.80
2019-03-27T16:49:38.941Z,9.80
2019-03-27T16:52:07.549Z,9.80
2019-03-27T16:54:36.263Z,9.80
2019-03-27T16:57:04.936Z,9.70
2019-03-27T16:59:33.555Z,9.70
2019-03-27T17:02:02.225Z,9.60
2019-03-27T17:04:30.940Z,9.60
2019-03-27T17:06:59.630Z,9.60
2019-03-27T17:09:28.331Z,9.60
2019-03-27T17:11:57.032Z,9.60
2019-03-27T17:14:25.648Z,9.60
2019-03-27T17:16:54.397Z,9.50
2019-03-27T17:19:23.053Z,9.60
2019-03-27T17:21:51.758Z,9.50
2019-03-27T17:24:20.427Z,9.50
2019-03-27T17:26:49.103Z,9.60
2019-03-27T17:29:17.815Z,9.50
2019-03-27T17:31:46.491Z,9.50
2019-03-27T17:34:15.202Z,9.50
2019-03-27T17:36:43.815Z,9.50
2019-03-27T17:39:12.501Z,9.60
2019-03-27T17:41:41.202Z,9.60
2019-03-27T17:44:09.888Z,9.60
2019-03-27T17:46:38.630Z,9.60
2019-03-27T17:49:07.291Z,9.60
2019-03-27T17:51:35.984Z,9.60
2019-03-27T17:54:04.683Z,9.60
2019-03-27T17:56:33.341Z,9.50
2019-03-27T17:59:02.053Z,9.50
2019-03-27T18:01:30.671Z,9.50
2019-03-27T18:03:59.397Z,9.50
2019-03-27T18:06:28.084Z,9.50
2019-03-27T18:08:56.755Z,9.40
2019-03-27T18:11:25.469Z,9.40
2019-03-27T18:13:54.143Z,9.40
2019-03-27T18:16:22.834Z,9.50
2019-03-27T18:18:51.425Z,9.50
2019-03-27T18:21:21.458Z,9.50
2019-03-27T18:23:50.461Z,9.50
2019-03-27T18:26:19.164Z,9.50
2019-03-27T18:28:47.807Z,9.40
2019-03-27T18:31:16.515Z,9.40
2019-03-27T18:33:45.337Z,9.40
2019-03-27T18:36:13.735Z,9.40
2019-03-27T18:38:45.620Z,9.40
2019-03-27T18:41:13.050Z,9.40
2019-03-27T18:43:41.723Z,9.40
2019-03-27T18:46:10.371Z,9.40
2019-03-27T18:48:39.059Z,9.40
2019-03-27T18:51:07.754Z,9.40
2019-03-27T18:53:36.439Z,9.40
2019-03-27T18:56:05.171Z,9.40
2019-03-27T18:58:33.846Z,9.30
2019-03-27T19:01:02.533Z,9.40
2019-03-27T19:03:31.211Z,9.40
2019-03-27T19:05:59.887Z,9.40
2019-03-27T19:08:28.580Z,9.40
2019-03-27T19:10:57.198Z,9.40
2019-03-27T19:13:25.826Z,9.40
2019-03-27T19:15:54.505Z,9.30
2019-03-27T19:18:23.146Z,9.40
2019-03-27T19:20:51.755Z,9.30
2019-03-27T19:23:20.427Z,9.30
2019-03-27T19:25:49.114Z,9.30
2019-03-27T19:28:17.802Z,9.20
2019-03-27T19:30:46.436Z,9.20
2019-03-27T19:33:15.120Z,9.20
2019-03-27T19:35:43.833Z,9.20
2019-03-27T19:38:12.544Z,9.20
2019-03-27T19:40:41.236Z,9.20
2019-03-27T19:43:09.926Z,9.20
2019-03-27T19:45:38.602Z,9.20
2019-03-27T19:48:07.279Z,9.20
2019-03-27T19:50:35.937Z,9.20
2019-03-27T19:53:04.701Z,9.20
2019-03-27T19:55:33.414Z,9.20
2019-03-27T19:58:02.103Z,9.10
2019-03-27T20:00:30.804Z,9.10
2019-03-27T20:02:59.498Z,9.00
2019-03-27T20:05:28.121Z,9.10
2019-03-27T20:07:56.812Z,9.10
2019-03-27T20:10:25.510Z,9.10
2019-03-27T20:12:54.197Z,9.10
2019-03-27T20:15:22.870Z,9.10
2019-03-27T20:17:51.590Z,9.10
2019-03-27T20:20:20.271Z,9.10
2019-03-27T20:22:48.965Z,9.10
2019-03-27T20:25:17.640Z,9.00
2019-03-27T20:27:46.254Z,9.00
2019-03-27T20:30:20.862Z,9.00
2019-03-27T20:32:49.852Z,9.00
2019-03-27T20:35:18.577Z,8.90
2019-03-27T20:37:47.272Z,8.90
2019-03-27T20:40:15.925Z,9.00
2019-03-27T20:42:44.663Z,8.90
2019-03-27T20:45:13.811Z,9.00
2019-03-27T20:47:42.792Z,9.10
2019-03-27T20:50:11.504Z,9.00
2019-03-27T20:52:40.172Z,9.00
2019-03-27T20:55:08.810Z,9.00
2019-03-27T20:57:37.529Z,9.00
2019-03-27T21:00:06.456Z,9.00
2019-03-27T21:02:34.908Z,8.90
2019-03-27T21:05:04.256Z,9.00
2019-03-27T21:07:33.269Z,8.90
2019-03-27T21:10:01.961Z,8.90
2019-03-27T21:12:30.648Z,8.90
2019-03-27T21:14:59.357Z,8.90
2019-03-27T21:17:28.037Z,8.90
2019-03-27T21:19:56.739Z,8.90
2019-03-27T21:22:25.430Z,8.90
2019-03-27T21:25:07.609Z,8.90
2019-03-27T21:27:24.759Z,8.90
2019-03-27T21:29:53.395Z,8.80
2019-03-27T21:32:22.128Z,8.90
2019-03-27T21:34:50.821Z,8.80
2019-03-27T21:37:19.569Z,8.80
2019-03-27T21:39:48.272Z,8.80
2019-03-27T21:42:16.990Z,8.80
2019-03-27T21:44:45.733Z,8.80
2019-03-27T21:47:14.467Z,8.80
2019-03-27T21:49:43.198Z,8.80
2019-03-27T21:52:11.910Z,8.80
2019-03-27T21:54:40.629Z,8.80
2019-03-27T21:57:09.353Z,8.90
2019-03-27T21:59:38.067Z,8.90
2019-03-27T22:02:07.066Z,8.80
2019-03-27T22:04:34.804Z,8.90
2019-03-27T22:07:03.306Z,8.80
2019-03-27T22:09:32.011Z,8.80
2019-03-27T22:12:00.769Z,8.70
2019-03-27T22:14:29.471Z,8.80
2019-03-27T22:16:58.188Z,8.80
2019-03-27T22:19:26.909Z,8.80
2019-03-27T22:21:55.600Z,8.80
2019-03-27T22:24:24.320Z,8.80
2019-03-27T22:26:53.043Z,8.80
2019-03-27T22:29:21.777Z,8.80
2019-03-27T22:31:50.487Z,8.80
2019-03-27T22:34:19.287Z,8.70
2019-03-27T22:36:47.741Z,8.80
2019-03-27T22:39:16.448Z,8.80
2019-03-27T22:41:45.166Z,8.80
2019-03-27T22:44:13.868Z,8.70
2019-03-27T22:46:42.637Z,8.80
2019-03-27T22:49:11.315Z,8.70
2019-03-27T22:51:40.010Z,8.70
2019-03-27T22:54:08.736Z,8.70
2019-03-27T22:56:37.441Z,8.70
2019-03-27T22:59:06.167Z,8.70
2019-03-27T23:01:40.635Z,8.70
2019-03-27T23:04:09.647Z,8.60
2019-03-27T23:06:38.368Z,8.70
2019-03-27T23:09:07.085Z,8.60
2019-03-27T23:11:35.811Z,8.70
2019-03-27T23:14:04.515Z,8.60
2019-03-27T23:16:33.253Z,8.60
2019-03-27T23:19:01.970Z,8.60
2019-03-27T23:21:30.787Z,8.60
2019-03-27T23:23:59.492Z,8.70
2019-03-27T23:26:28.229Z,8.70
2019-03-27T23:28:56.933Z,8.70
2019-03-27T23:31:25.647Z,8.80
2019-03-27T23:33:54.359Z,8.80
2019-03-27T23:36:23.072Z,8.80
2019-03-27T23:38:51.813Z,8.80
2019-03-27T23:41:20.514Z,8.70
2019-03-27T23:43:49.261Z,8.70
2019-03-27T23:46:17.950Z,8.70
2019-03-27T23:48:46.670Z,8.70
2019-03-27T23:51:17.516Z,8.60
2019-03-27T23:53:46.221Z,8.60
2019-03-27T23:56:16.983Z,8.60
2019-03-27T23:58:45.577Z,8.60
